Canoochee, Georgia
Current Conditions -  °F | °C
As of 1:15 PM on Thursday 27 Nov 2014 (Local Time) from KSBO Reporting Station
Scattered Clouds Scattered Clouds  
Wind Chill: 55°   Ceiling: Unl
Heat Index: 55°   Visibility: 10mi
Dew Point: 34°   Wind: 14mph
Humidity: 44%   Direction: 290°WNW
Pressure: 30.21"   Gusts: 25mph
Location:  32.6511°N, 82.2336°W
Report Text: KSBO 271815Z AUTO 29012G22KT 10SM SCT055 13/01 A3021 RMK AO2
Loading
Personal Weather Stations






























Interactive Weather Map New forecast layout! Learn more

10-Day Weather Forecast

Advertisements
Track Severe Weather on mobile